Current Conditions
Clear
Conditions



Pressure
1011.18 (mb) - 29.86 (inHG)
Visibility

10.0 (mimiles) - 16.1 (km)
   Temperature
91  °F
33°C
68  °F
Dewpoint
46  %
 Humidity
   Wind Speed
10  mph
9  kts
16  km/h
4.5  m/s
   Wind Direction
 260°
Due West
   Airport Data
KBHC
Location Baxley Municipal Airport 3 mi (4.83 km)
Metar :KBHC 242135Z AUTO 26009KT 10SM CLR 33/20 A2986 RMK AO2
Mon 24th June 17:35 pm
   Raw Metar Info
Raw METAR is the most common format in the world for the transmission of observational weather data. It is highly standardized through the International Civil Aviation Organization (ICAO), which allows it to be understood throughout most of the world.
   API Info
Data Provided by
https://www.checkwx.com/weather/KBHC
   © Info
CSS/SVG/PHP scripts were developed by weather34.com for use in the weather34 template © 2015-2024

Guide Info provided by Metar-Wikipedia